Aviation Digital Data Service (ADDS)

Output produced by METARs form (1304 UTC 17 January 2017)
found at http://aviationweather.gov/adds/metars/
 
KRWI 171259Z 1713/1812 00000KT 6SM BR OVC006 
     TEMPO 1715/1717 6SM BR BKN012 
     FM171700 24012G20KT P6SM SCT025 
     FM172300 21007KT 5SM BR OVC009 
     FM180600 22009KT P6SM OVC050 
     FM181100 23010KT 6SM BR OVC015